sensor_id;sensor_type;location;lat;lon;timestamp;P1;durP1;ratioP1;P2;durP2;ratioP2
11394;SDS011;5753;54.402;10.220;2023-07-13T00:01:53;8.15;;;2.28;;
11394;SDS011;5753;54.402;10.220;2023-07-13T00:04:20;4.05;;;2.15;;
11394;SDS011;5753;54.402;10.220;2023-07-13T00:06:50;3.22;;;1.85;;
11394;SDS011;5753;54.402;10.220;2023-07-13T00:09:17;5.32;;;2.85;;
11394;SDS011;5753;54.402;10.220;2023-07-13T00:11:44;5.82;;;3.42;;
11394;SDS011;5753;54.402;10.220;2023-07-13T00:14:13;3.20;;;2.00;;
11394;SDS011;5753;54.402;10.220;2023-07-13T00:16:40;3.25;;;2.08;;
11394;SDS011;5753;54.402;10.220;2023-07-13T00:19:08;10.02;;;3.50;;
11394;SDS011;5753;54.402;10.220;2023-07-13T00:21:35;2.58;;;2.05;;
11394;SDS011;5753;54.402;10.220;2023-07-13T00:24:01;7.68;;;2.58;;
11394;SDS011;5753;54.402;10.220;2023-07-13T00:26:29;11.23;;;3.88;;
11394;SDS011;5753;54.402;10.220;2023-07-13T00:28:57;12.13;;;2.97;;
11394;SDS011;5753;54.402;10.220;2023-07-13T00:31:24;5.47;;;2.55;;
11394;SDS011;5753;54.402;10.220;2023-07-13T00:33:50;3.67;;;2.53;;
11394;SDS011;5753;54.402;10.220;2023-07-13T00:36:16;4.00;;;3.10;;
11394;SDS011;5753;54.402;10.220;2023-07-13T00:38:45;5.80;;;2.38;;
11394;SDS011;5753;54.402;10.220;2023-07-13T00:41:12;3.92;;;2.20;;
11394;SDS011;5753;54.402;10.220;2023-07-13T00:43:39;5.32;;;2.30;;
11394;SDS011;5753;54.402;10.220;2023-07-13T00:46:16;2.85;;;2.53;;
11394;SDS011;5753;54.402;10.220;2023-07-13T00:48:50;5.57;;;2.72;;
11394;SDS011;5753;54.402;10.220;2023-07-13T00:51:19;8.95;;;3.38;;
11394;SDS011;5753;54.402;10.220;2023-07-13T00:53:50;6.53;;;2.63;;
11394;SDS011;5753;54.402;10.220;2023-07-13T00:56:18;4.50;;;2.40;;
11394;SDS011;5753;54.402;10.220;2023-07-13T00:58:44;5.35;;;3.35;;
11394;SDS011;5753;54.402;10.220;2023-07-13T01:01:11;5.63;;;2.35;;
11394;SDS011;5753;54.402;10.220;2023-07-13T01:03:38;4.13;;;2.38;;
11394;SDS011;5753;54.402;10.220;2023-07-13T01:06:05;2.75;;;2.17;;
11394;SDS011;5753;54.402;10.220;2023-07-13T01:08:32;4.07;;;3.67;;
11394;SDS011;5753;54.402;10.220;2023-07-13T01:10:58;8.35;;;4.95;;
11394;SDS011;5753;54.402;10.220;2023-07-13T01:13:24;5.20;;;1.88;;
11394;SDS011;5753;54.402;10.220;2023-07-13T01:15:51;10.45;;;2.70;;
11394;SDS011;5753;54.402;10.220;2023-07-13T01:18:19;3.22;;;2.05;;
11394;SDS011;5753;54.402;10.220;2023-07-13T01:20:51;2.67;;;1.55;;
11394;SDS011;5753;54.402;10.220;2023-07-13T01:23:19;9.82;;;2.88;;
11394;SDS011;5753;54.402;10.220;2023-07-13T01:25:47;12.70;;;4.80;;
11394;SDS011;5753;54.402;10.220;2023-07-13T01:28:13;7.80;;;2.55;;
11394;SDS011;5753;54.402;10.220;2023-07-13T01:30:42;2.95;;;2.28;;
11394;SDS011;5753;54.402;10.220;2023-07-13T01:33:10;11.48;;;3.72;;
11394;SDS011;5753;54.402;10.220;2023-07-13T01:35:38;4.05;;;2.10;;
11394;SDS011;5753;54.402;10.220;2023-07-13T01:38:05;10.80;;;2.45;;
11394;SDS011;5753;54.402;10.220;2023-07-13T01:40:33;7.20;;;3.20;;
11394;SDS011;5753;54.402;10.220;2023-07-13T01:43:00;11.35;;;2.50;;
11394;SDS011;5753;54.402;10.220;2023-07-13T01:45:27;7.45;;;3.05;;
11394;SDS011;5753;54.402;10.220;2023-07-13T01:47:53;9.65;;;2.97;;
11394;SDS011;5753;54.402;10.220;2023-07-13T01:50:19;7.97;;;3.33;;
11394;SDS011;5753;54.402;10.220;2023-07-13T01:52:46;4.82;;;2.83;;
11394;SDS011;5753;54.402;10.220;2023-07-13T01:55:12;4.72;;;2.63;;
11394;SDS011;5753;54.402;10.220;2023-07-13T01:57:39;2.65;;;2.22;;
11394;SDS011;5753;54.402;10.220;2023-07-13T02:00:05;4.15;;;2.05;;
11394;SDS011;5753;54.402;10.220;2023-07-13T02:02:34;7.30;;;2.30;;
11394;SDS011;5753;54.402;10.220;2023-07-13T02:05:03;3.47;;;2.45;;
11394;SDS011;5753;54.402;10.220;2023-07-13T02:07:29;9.05;;;3.63;;
11394;SDS011;5753;54.402;10.220;2023-07-13T02:09:55;10.52;;;4.18;;
11394;SDS011;5753;54.402;10.220;2023-07-13T02:12:22;2.70;;;2.38;;
11394;SDS011;5753;54.402;10.220;2023-07-13T02:14:48;18.52;;;4.47;;
11394;SDS011;5753;54.402;10.220;2023-07-13T02:17:14;7.10;;;3.42;;
11394;SDS011;5753;54.402;10.220;2023-07-13T02:19:40;9.80;;;2.35;;
11394;SDS011;5753;54.402;10.220;2023-07-13T02:22:06;3.20;;;1.95;;
11394;SDS011;5753;54.402;10.220;2023-07-13T02:24:32;5.53;;;2.40;;
11394;SDS011;5753;54.402;10.220;2023-07-13T02:26:59;5.85;;;3.35;;
11394;SDS011;5753;54.402;10.220;2023-07-13T02:29:25;3.72;;;2.42;;
11394;SDS011;5753;54.402;10.220;2023-07-13T02:31:51;5.43;;;3.13;;
11394;SDS011;5753;54.402;10.220;2023-07-13T02:34:17;4.28;;;2.10;;
11394;SDS011;5753;54.402;10.220;2023-07-13T02:36:43;4.85;;;2.60;;
11394;SDS011;5753;54.402;10.220;2023-07-13T02:39:10;8.90;;;2.78;;
11394;SDS011;5753;54.402;10.220;2023-07-13T02:41:40;6.25;;;2.20;;
11394;SDS011;5753;54.402;10.220;2023-07-13T02:44:06;8.82;;;2.92;;
11394;SDS011;5753;54.402;10.220;2023-07-13T02:46:33;2.28;;;1.88;;
11394;SDS011;5753;54.402;10.220;2023-07-13T02:49:01;3.78;;;2.45;;
11394;SDS011;5753;54.402;10.220;2023-07-13T02:51:28;1.58;;;1.38;;
11394;SDS011;5753;54.402;10.220;2023-07-13T02:53:54;2.60;;;2.15;;
11394;SDS011;5753;54.402;10.220;2023-07-13T02:56:22;8.02;;;2.47;;
11394;SDS011;5753;54.402;10.220;2023-07-13T02:58:50;3.53;;;1.70;;
11394;SDS011;5753;54.402;10.220;2023-07-13T03:01:16;3.47;;;1.92;;
11394;SDS011;5753;54.402;10.220;2023-07-13T03:03:44;2.30;;;2.00;;
11394;SDS011;5753;54.402;10.220;2023-07-13T03:06:11;6.90;;;2.92;;
11394;SDS011;5753;54.402;10.220;2023-07-13T03:08:38;2.40;;;2.08;;
11394;SDS011;5753;54.402;10.220;2023-07-13T03:11:15;3.97;;;2.72;;
11394;SDS011;5753;54.402;10.220;2023-07-13T03:13:44;3.72;;;3.00;;
11394;SDS011;5753;54.402;10.220;2023-07-13T03:16:10;3.85;;;3.55;;
11394;SDS011;5753;54.402;10.220;2023-07-13T03:18:37;14.07;;;4.05;;
11394;SDS011;5753;54.402;10.220;2023-07-13T03:21:04;4.93;;;2.78;;
11394;SDS011;5753;54.402;10.220;2023-07-13T03:23:31;2.75;;;2.20;;
11394;SDS011;5753;54.402;10.220;2023-07-13T03:26:04;5.53;;;3.10;;
11394;SDS011;5753;54.402;10.220;2023-07-13T03:28:39;3.60;;;2.65;;
11394;SDS011;5753;54.402;10.220;2023-07-13T03:31:07;3.90;;;3.55;;
11394;SDS011;5753;54.402;10.220;2023-07-13T03:33:39;5.70;;;4.20;;
11394;SDS011;5753;54.402;10.220;2023-07-13T03:36:05;5.20;;;4.03;;
11394;SDS011;5753;54.402;10.220;2023-07-13T03:38:33;5.57;;;3.10;;
11394;SDS011;5753;54.402;10.220;2023-07-13T03:40:59;4.93;;;4.10;;
11394;SDS011;5753;54.402;10.220;2023-07-13T03:43:26;3.78;;;3.47;;
11394;SDS011;5753;54.402;10.220;2023-07-13T03:45:52;7.60;;;3.67;;
11394;SDS011;5753;54.402;10.220;2023-07-13T03:48:18;5.53;;;2.70;;
11394;SDS011;5753;54.402;10.220;2023-07-13T03:50:44;6.97;;;4.18;;
11394;SDS011;5753;54.402;10.220;2023-07-13T03:53:12;7.32;;;3.85;;
11394;SDS011;5753;54.402;10.220;2023-07-13T03:55:38;5.40;;;4.93;;
11394;SDS011;5753;54.402;10.220;2023-07-13T03:58:23;6.47;;;4.78;;
11394;SDS011;5753;54.402;10.220;2023-07-13T04:00:53;4.70;;;3.85;;
11394;SDS011;5753;54.402;10.220;2023-07-13T04:03:20;6.32;;;4.50;;
11394;SDS011;5753;54.402;10.220;2023-07-13T04:05:46;6.00;;;4.38;;
11394;SDS011;5753;54.402;10.220;2023-07-13T04:08:12;10.57;;;3.63;;
11394;SDS011;5753;54.402;10.220;2023-07-13T04:10:39;6.07;;;2.88;;
11394;SDS011;5753;54.402;10.220;2023-07-13T04:13:05;5.03;;;4.63;;
11394;SDS011;5753;54.402;10.220;2023-07-13T04:15:31;6.63;;;3.45;;
11394;SDS011;5753;54.402;10.220;2023-07-13T04:17:58;4.13;;;3.53;;
11394;SDS011;5753;54.402;10.220;2023-07-13T04:20:25;12.45;;;5.47;;
11394;SDS011;5753;54.402;10.220;2023-07-13T04:22:51;6.38;;;4.13;;
11394;SDS011;5753;54.402;10.220;2023-07-13T04:25:20;5.50;;;3.90;;
11394;SDS011;5753;54.402;10.220;2023-07-13T04:27:46;5.97;;;3.58;;
11394;SDS011;5753;54.402;10.220;2023-07-13T04:30:13;5.00;;;4.30;;
11394;SDS011;5753;54.402;10.220;2023-07-13T04:32:39;4.38;;;3.97;;
11394;SDS011;5753;54.402;10.220;2023-07-13T04:35:05;7.28;;;5.15;;
11394;SDS011;5753;54.402;10.220;2023-07-13T04:37:31;5.38;;;4.85;;
11394;SDS011;5753;54.402;10.220;2023-07-13T04:39:57;13.82;;;4.18;;
11394;SDS011;5753;54.402;10.220;2023-07-13T04:42:23;5.68;;;3.67;;
11394;SDS011;5753;54.402;10.220;2023-07-13T04:44:50;8.27;;;3.72;;
11394;SDS011;5753;54.402;10.220;2023-07-13T04:47:17;6.43;;;4.00;;
11394;SDS011;5753;54.402;10.220;2023-07-13T04:49:44;6.32;;;4.13;;
11394;SDS011;5753;54.402;10.220;2023-07-13T04:52:11;11.05;;;5.10;;
11394;SDS011;5753;54.402;10.220;2023-07-13T04:54:37;5.32;;;3.63;;
11394;SDS011;5753;54.402;10.220;2023-07-13T04:57:04;10.45;;;4.05;;
11394;SDS011;5753;54.402;10.220;2023-07-13T04:59:34;6.40;;;5.80;;
11394;SDS011;5753;54.402;10.220;2023-07-13T05:02:00;4.93;;;3.90;;
11394;SDS011;5753;54.402;10.220;2023-07-13T05:04:26;8.15;;;4.10;;
11394;SDS011;5753;54.402;10.220;2023-07-13T05:06:52;4.97;;;4.18;;
11394;SDS011;5753;54.402;10.220;2023-07-13T05:09:18;10.07;;;5.20;;
11394;SDS011;5753;54.402;10.220;2023-07-13T05:11:45;6.85;;;4.40;;
11394;SDS011;5753;54.402;10.220;2023-07-13T05:14:11;6.25;;;3.33;;
11394;SDS011;5753;54.402;10.220;2023-07-13T05:16:37;11.38;;;3.53;;
11394;SDS011;5753;54.402;10.220;2023-07-13T05:19:03;8.60;;;4.65;;
11394;SDS011;5753;54.402;10.220;2023-07-13T05:21:30;9.07;;;3.65;;
11394;SDS011;5753;54.402;10.220;2023-07-13T05:23:56;4.15;;;3.50;;
11394;SDS011;5753;54.402;10.220;2023-07-13T05:26:22;7.20;;;3.13;;
11394;SDS011;5753;54.402;10.220;2023-07-13T05:28:48;5.50;;;3.42;;
11394;SDS011;5753;54.402;10.220;2023-07-13T05:31:14;31.10;;;5.22;;
11394;SDS011;5753;54.402;10.220;2023-07-13T05:33:40;6.35;;;3.20;;
11394;SDS011;5753;54.402;10.220;2023-07-13T05:36:06;9.90;;;3.58;;
11394;SDS011;5753;54.402;10.220;2023-07-13T05:38:33;7.32;;;4.95;;
11394;SDS011;5753;54.402;10.220;2023-07-13T05:40:59;13.23;;;3.63;;
11394;SDS011;5753;54.402;10.220;2023-07-13T05:43:25;5.97;;;4.78;;
11394;SDS011;5753;54.402;10.220;2023-07-13T05:45:55;6.97;;;3.85;;
11394;SDS011;5753;54.402;10.220;2023-07-13T05:48:22;7.70;;;3.15;;
11394;SDS011;5753;54.402;10.220;2023-07-13T05:50:49;3.83;;;3.00;;
11394;SDS011;5753;54.402;10.220;2023-07-13T05:53:15;5.13;;;2.75;;
11394;SDS011;5753;54.402;10.220;2023-07-13T05:55:45;5.72;;;4.13;;
11394;SDS011;5753;54.402;10.220;2023-07-13T05:58:16;4.47;;;3.08;;
11394;SDS011;5753;54.402;10.220;2023-07-13T06:00:42;10.45;;;4.18;;
11394;SDS011;5753;54.402;10.220;2023-07-13T06:03:08;8.95;;;4.28;;
11394;SDS011;5753;54.402;10.220;2023-07-13T06:05:37;6.50;;;4.10;;
11394;SDS011;5753;54.402;10.220;2023-07-13T06:08:07;10.05;;;3.00;;
11394;SDS011;5753;54.402;10.220;2023-07-13T06:10:34;12.27;;;4.22;;
11394;SDS011;5753;54.402;10.220;2023-07-13T06:13:01;6.95;;;4.10;;
11394;SDS011;5753;54.402;10.220;2023-07-13T06:15:28;3.65;;;2.95;;
11394;SDS011;5753;54.402;10.220;2023-07-13T06:17:54;4.75;;;4.30;;
11394;SDS011;5753;54.402;10.220;2023-07-13T06:20:20;4.18;;;2.38;;
11394;SDS011;5753;54.402;10.220;2023-07-13T06:22:46;6.05;;;2.75;;
11394;SDS011;5753;54.402;10.220;2023-07-13T06:25:12;9.80;;;3.80;;
11394;SDS011;5753;54.402;10.220;2023-07-13T06:27:39;9.73;;;4.53;;
11394;SDS011;5753;54.402;10.220;2023-07-13T06:30:05;6.28;;;3.42;;
11394;SDS011;5753;54.402;10.220;2023-07-13T06:32:31;11.88;;;6.65;;
11394;SDS011;5753;54.402;10.220;2023-07-13T06:34:57;6.72;;;4.60;;
11394;SDS011;5753;54.402;10.220;2023-07-13T06:37:24;6.47;;;4.05;;
11394;SDS011;5753;54.402;10.220;2023-07-13T06:39:50;9.13;;;3.40;;
11394;SDS011;5753;54.402;10.220;2023-07-13T06:42:16;12.70;;;5.47;;
11394;SDS011;5753;54.402;10.220;2023-07-13T06:44:42;4.45;;;3.75;;
11394;SDS011;5753;54.402;10.220;2023-07-13T06:47:09;6.88;;;3.30;;
11394;SDS011;5753;54.402;10.220;2023-07-13T06:49:35;9.43;;;4.68;;
11394;SDS011;5753;54.402;10.220;2023-07-13T06:52:01;9.10;;;5.28;;
11394;SDS011;5753;54.402;10.220;2023-07-13T06:54:27;10.00;;;4.45;;
11394;SDS011;5753;54.402;10.220;2023-07-13T06:56:54;7.30;;;4.90;;
11394;SDS011;5753;54.402;10.220;2023-07-13T06:59:20;12.68;;;4.57;;
11394;SDS011;5753;54.402;10.220;2023-07-13T07:01:46;6.90;;;3.60;;
11394;SDS011;5753;54.402;10.220;2023-07-13T07:04:12;4.88;;;3.47;;
11394;SDS011;5753;54.402;10.220;2023-07-13T07:06:38;9.85;;;3.85;;
11394;SDS011;5753;54.402;10.220;2023-07-13T07:09:04;5.47;;;3.80;;
11394;SDS011;5753;54.402;10.220;2023-07-13T07:11:31;5.88;;;4.03;;
11394;SDS011;5753;54.402;10.220;2023-07-13T07:13:57;8.95;;;4.93;;
11394;SDS011;5753;54.402;10.220;2023-07-13T07:16:24;13.35;;;5.80;;
11394;SDS011;5753;54.402;10.220;2023-07-13T07:18:51;7.13;;;3.45;;
11394;SDS011;5753;54.402;10.220;2023-07-13T07:21:17;9.85;;;4.95;;
11394;SDS011;5753;54.402;10.220;2023-07-13T07:23:43;7.65;;;3.53;;
11394;SDS011;5753;54.402;10.220;2023-07-13T07:26:09;6.75;;;3.17;;
11394;SDS011;5753;54.402;10.220;2023-07-13T07:28:36;7.57;;;4.13;;
11394;SDS011;5753;54.402;10.220;2023-07-13T07:31:02;12.45;;;5.30;;
11394;SDS011;5753;54.402;10.220;2023-07-13T07:33:29;5.18;;;3.05;;
11394;SDS011;5753;54.402;10.220;2023-07-13T07:35:55;8.60;;;3.85;;
11394;SDS011;5753;54.402;10.220;2023-07-13T07:38:21;9.90;;;2.55;;
11394;SDS011;5753;54.402;10.220;2023-07-13T07:40:47;8.27;;;3.95;;
11394;SDS011;5753;54.402;10.220;2023-07-13T07:43:13;4.47;;;2.15;;
11394;SDS011;5753;54.402;10.220;2023-07-13T07:45:40;6.53;;;2.22;;
11394;SDS011;5753;54.402;10.220;2023-07-13T07:48:06;13.38;;;2.53;;
11394;SDS011;5753;54.402;10.220;2023-07-13T07:50:34;6.05;;;3.40;;
11394;SDS011;5753;54.402;10.220;2023-07-13T07:53:00;4.30;;;2.17;;
11394;SDS011;5753;54.402;10.220;2023-07-13T07:55:27;7.63;;;2.03;;
11394;SDS011;5753;54.402;10.220;2023-07-13T07:57:53;3.40;;;2.05;;
11394;SDS011;5753;54.402;10.220;2023-07-13T08:00:21;5.43;;;2.40;;
11394;SDS011;5753;54.402;10.220;2023-07-13T08:02:48;7.18;;;3.10;;
11394;SDS011;5753;54.402;10.220;2023-07-13T08:05:14;8.07;;;4.00;;
11394;SDS011;5753;54.402;10.220;2023-07-13T08:07:40;7.07;;;2.65;;
11394;SDS011;5753;54.402;10.220;2023-07-13T08:10:06;7.80;;;4.20;;
11394;SDS011;5753;54.402;10.220;2023-07-13T08:12:36;22.50;;;6.35;;
11394;SDS011;5753;54.402;10.220;2023-07-13T08:15:04;7.35;;;2.60;;
11394;SDS011;5753;54.402;10.220;2023-07-13T08:17:31;6.97;;;2.42;;
11394;SDS011;5753;54.402;10.220;2023-07-13T08:19:57;4.88;;;2.42;;
11394;SDS011;5753;54.402;10.220;2023-07-13T08:22:24;6.75;;;3.55;;
11394;SDS011;5753;54.402;10.220;2023-07-13T08:24:50;2.10;;;1.85;;
11394;SDS011;5753;54.402;10.220;2023-07-13T08:27:21;3.33;;;1.58;;
11394;SDS011;5753;54.402;10.220;2023-07-13T08:29:48;3.53;;;1.80;;
11394;SDS011;5753;54.402;10.220;2023-07-13T08:32:15;8.43;;;2.40;;
11394;SDS011;5753;54.402;10.220;2023-07-13T08:34:43;3.00;;;1.75;;
11394;SDS011;5753;54.402;10.220;2023-07-13T08:37:09;2.33;;;2.10;;
11394;SDS011;5753;54.402;10.220;2023-07-13T08:39:35;2.20;;;1.58;;
11394;SDS011;5753;54.402;10.220;2023-07-13T08:42:06;2.70;;;2.50;;
11394;SDS011;5753;54.402;10.220;2023-07-13T08:44:55;3.05;;;2.08;;
11394;SDS011;5753;54.402;10.220;2023-07-13T08:47:39;3.28;;;2.53;;
11394;SDS011;5753;54.402;10.220;2023-07-13T08:50:11;4.23;;;2.37;;
11394;SDS011;5753;54.402;10.220;2023-07-13T08:52:40;1.90;;;1.48;;
11394;SDS011;5753;54.402;10.220;2023-07-13T08:55:13;2.00;;;1.83;;
11394;SDS011;5753;54.402;10.220;2023-07-13T08:57:41;4.50;;;1.63;;
11394;SDS011;5753;54.402;10.220;2023-07-13T09:00:10;6.38;;;2.30;;
11394;SDS011;5753;54.402;10.220;2023-07-13T09:05:13;8.05;;;2.97;;
11394;SDS011;5753;54.402;10.220;2023-07-13T09:10:52;28.70;;;9.27;;
11394;SDS011;5753;54.402;10.220;2023-07-13T09:16:33;12.35;;;2.65;;
11394;SDS011;5753;54.402;10.220;2023-07-13T09:19:03;3.75;;;1.77;;
11394;SDS011;5753;54.402;10.220;2023-07-13T09:21:33;6.10;;;2.30;;
11394;SDS011;5753;54.402;10.220;2023-07-13T09:26:40;6.03;;;1.75;;
11394;SDS011;5753;54.402;10.220;2023-07-13T09:29:23;7.13;;;2.90;;
11394;SDS011;5753;54.402;10.220;2023-07-13T09:31:55;3.33;;;2.50;;
11394;SDS011;5753;54.402;10.220;2023-07-13T09:34:26;12.32;;;4.05;;
11394;SDS011;5753;54.402;10.220;2023-07-13T09:36:54;5.70;;;3.17;;
11394;SDS011;5753;54.402;10.220;2023-07-13T09:47:18;2.85;;;2.63;;
11394;SDS011;5753;54.402;10.220;2023-07-13T09:50:02;5.88;;;2.17;;
11394;SDS011;5753;54.402;10.220;2023-07-13T09:52:51;6.18;;;2.33;;
11394;SDS011;5753;54.402;10.220;2023-07-13T09:55:23;4.78;;;3.08;;
11394;SDS011;5753;54.402;10.220;2023-07-13T09:58:19;8.02;;;2.15;;
11394;SDS011;5753;54.402;10.220;2023-07-13T10:00:57;5.32;;;2.13;;
11394;SDS011;5753;54.402;10.220;2023-07-13T10:03:26;5.47;;;2.42;;
11394;SDS011;5753;54.402;10.220;2023-07-13T10:05:57;6.32;;;2.75;;
11394;SDS011;5753;54.402;10.220;2023-07-13T10:08:35;6.65;;;2.40;;
11394;SDS011;5753;54.402;10.220;2023-07-13T10:11:09;9.45;;;2.50;;
11394;SDS011;5753;54.402;10.220;2023-07-13T10:13:42;2.35;;;2.08;;
11394;SDS011;5753;54.402;10.220;2023-07-13T10:16:14;7.90;;;2.45;;
11394;SDS011;5753;54.402;10.220;2023-07-13T10:18:57;3.83;;;1.75;;
11394;SDS011;5753;54.402;10.220;2023-07-13T10:21:28;7.80;;;2.67;;
11394;SDS011;5753;54.402;10.220;2023-07-13T10:24:10;4.22;;;2.55;;
11394;SDS011;5753;54.402;10.220;2023-07-13T10:26:56;2.22;;;2.03;;
11394;SDS011;5753;54.402;10.220;2023-07-13T10:29:24;6.07;;;2.00;;
11394;SDS011;5753;54.402;10.220;2023-07-13T10:31:53;2.47;;;1.67;;
11394;SDS011;5753;54.402;10.220;2023-07-13T10:34:22;3.20;;;1.65;;
11394;SDS011;5753;54.402;10.220;2023-07-13T10:36:48;3.80;;;1.90;;
11394;SDS011;5753;54.402;10.220;2023-07-13T10:39:20;3.03;;;2.13;;
11394;SDS011;5753;54.402;10.220;2023-07-13T10:41:53;2.80;;;1.90;;
11394;SDS011;5753;54.402;10.220;2023-07-13T10:44:32;2.83;;;1.77;;
11394;SDS011;5753;54.402;10.220;2023-07-13T10:47:00;7.35;;;1.73;;
11394;SDS011;5753;54.402;10.220;2023-07-13T10:49:31;6.43;;;1.77;;
11394;SDS011;5753;54.402;10.220;2023-07-13T10:52:00;4.38;;;2.03;;
11394;SDS011;5753;54.402;10.220;2023-07-13T10:54:28;1.55;;;1.10;;
11394;SDS011;5753;54.402;10.220;2023-07-13T11:00:18;4.88;;;1.13;;
11394;SDS011;5753;54.402;10.220;2023-07-13T11:02:55;0.85;;;0.75;;
11394;SDS011;5753;54.402;10.220;2023-07-13T11:08:12;2.22;;;1.60;;
11394;SDS011;5753;54.402;10.220;2023-07-13T11:13:55;2.60;;;2.15;;
11394;SDS011;5753;54.402;10.220;2023-07-13T11:21:30;0.63;;;0.63;;
11394;SDS011;5753;54.402;10.220;2023-07-13T11:26:43;2.53;;;0.90;;
11394;SDS011;5753;54.402;10.220;2023-07-13T11:31:53;4.10;;;2.65;;
11394;SDS011;5753;54.402;10.220;2023-07-13T11:34:25;1.00;;;0.70;;
11394;SDS011;5753;54.402;10.220;2023-07-13T11:36:59;1.77;;;1.38;;
11394;SDS011;5753;54.402;10.220;2023-07-13T11:39:29;4.03;;;1.10;;
11394;SDS011;5753;54.402;10.220;2023-07-13T11:42:00;2.00;;;1.10;;
11394;SDS011;5753;54.402;10.220;2023-07-13T11:44:33;2.20;;;1.35;;
11394;SDS011;5753;54.402;10.220;2023-07-13T11:47:07;4.25;;;1.80;;
11394;SDS011;5753;54.402;10.220;2023-07-13T11:49:45;4.05;;;1.48;;
11394;SDS011;5753;54.402;10.220;2023-07-13T11:52:18;2.10;;;1.23;;
11394;SDS011;5753;54.402;10.220;2023-07-13T11:54:51;6.13;;;1.42;;
11394;SDS011;5753;54.402;10.220;2023-07-13T11:57:37;4.50;;;0.93;;
11394;SDS011;5753;54.402;10.220;2023-07-13T12:00:13;2.08;;;0.77;;
11394;SDS011;5753;54.402;10.220;2023-07-13T12:02:43;2.90;;;1.13;;
11394;SDS011;5753;54.402;10.220;2023-07-13T12:05:12;1.67;;;0.88;;
11394;SDS011;5753;54.402;10.220;2023-07-13T12:07:40;3.28;;;0.90;;
11394;SDS011;5753;54.402;10.220;2023-07-13T12:10:26;3.50;;;1.00;;
11394;SDS011;5753;54.402;10.220;2023-07-13T12:12:57;2.10;;;1.38;;
11394;SDS011;5753;54.402;10.220;2023-07-13T12:15:38;3.22;;;0.70;;
11394;SDS011;5753;54.402;10.220;2023-07-13T12:18:18;3.38;;;1.35;;
11394;SDS011;5753;54.402;10.220;2023-07-13T12:20:45;2.60;;;0.90;;
11394;SDS011;5753;54.402;10.220;2023-07-13T12:25:56;0.82;;;0.70;;
11394;SDS011;5753;54.402;10.220;2023-07-13T12:30:59;1.15;;;0.60;;
11394;SDS011;5753;54.402;10.220;2023-07-13T12:33:28;1.60;;;1.50;;
11394;SDS011;5753;54.402;10.220;2023-07-13T12:35:56;1.48;;;1.20;;
11394;SDS011;5753;54.402;10.220;2023-07-13T12:38:25;1.10;;;0.88;;
11394;SDS011;5753;54.402;10.220;2023-07-13T12:40:51;1.00;;;0.90;;
11394;SDS011;5753;54.402;10.220;2023-07-13T12:43:19;3.70;;;0.80;;
11394;SDS011;5753;54.402;10.220;2023-07-13T12:45:54;4.88;;;1.10;;
11394;SDS011;5753;54.402;10.220;2023-07-13T12:48:26;0.95;;;0.73;;
11394;SDS011;5753;54.402;10.220;2023-07-13T12:50:53;2.15;;;1.60;;
11394;SDS011;5753;54.402;10.220;2023-07-13T12:53:28;1.55;;;0.82;;
11394;SDS011;5753;54.402;10.220;2023-07-13T12:55:59;3.85;;;1.35;;
11394;SDS011;5753;54.402;10.220;2023-07-13T12:58:40;1.52;;;1.15;;
11394;SDS011;5753;54.402;10.220;2023-07-13T13:01:09;2.38;;;0.57;;
11394;SDS011;5753;54.402;10.220;2023-07-13T13:03:39;4.80;;;2.30;;
11394;SDS011;5753;54.402;10.220;2023-07-13T13:08:44;2.13;;;1.00;;
11394;SDS011;5753;54.402;10.220;2023-07-13T13:11:13;2.88;;;1.90;;
11394;SDS011;5753;54.402;10.220;2023-07-13T13:13:41;3.17;;;1.20;;
11394;SDS011;5753;54.402;10.220;2023-07-13T13:16:10;2.05;;;1.38;;
11394;SDS011;5753;54.402;10.220;2023-07-13T13:18:38;2.42;;;0.85;;
11394;SDS011;5753;54.402;10.220;2023-07-13T13:21:04;3.95;;;0.82;;
11394;SDS011;5753;54.402;10.220;2023-07-13T13:23:30;1.85;;;0.80;;
11394;SDS011;5753;54.402;10.220;2023-07-13T13:25:57;3.88;;;0.95;;
11394;SDS011;5753;54.402;10.220;2023-07-13T13:28:23;0.88;;;0.60;;
11394;SDS011;5753;54.402;10.220;2023-07-13T13:30:50;1.70;;;0.90;;
11394;SDS011;5753;54.402;10.220;2023-07-13T13:33:17;3.60;;;1.77;;
11394;SDS011;5753;54.402;10.220;2023-07-13T13:35:45;2.35;;;1.40;;
11394;SDS011;5753;54.402;10.220;2023-07-13T13:38:14;3.42;;;0.90;;
11394;SDS011;5753;54.402;10.220;2023-07-13T13:40:44;1.42;;;0.85;;
11394;SDS011;5753;54.402;10.220;2023-07-13T13:43:15;2.33;;;0.88;;
11394;SDS011;5753;54.402;10.220;2023-07-13T13:45:43;1.98;;;1.02;;
11394;SDS011;5753;54.402;10.220;2023-07-13T13:48:14;2.78;;;1.35;;
11394;SDS011;5753;54.402;10.220;2023-07-13T13:50:42;4.38;;;1.00;;
11394;SDS011;5753;54.402;10.220;2023-07-13T13:53:12;2.92;;;1.20;;
11394;SDS011;5753;54.402;10.220;2023-07-13T13:55:39;1.67;;;0.80;;
11394;SDS011;5753;54.402;10.220;2023-07-13T13:58:07;3.58;;;1.80;;
11394;SDS011;5753;54.402;10.220;2023-07-13T14:00:35;1.80;;;1.08;;
11394;SDS011;5753;54.402;10.220;2023-07-13T14:03:04;2.42;;;1.85;;
11394;SDS011;5753;54.402;10.220;2023-07-13T14:05:33;1.92;;;0.88;;
11394;SDS011;5753;54.402;10.220;2023-07-13T14:08:00;2.65;;;0.88;;
11394;SDS011;5753;54.402;10.220;2023-07-13T14:10:26;5.78;;;1.30;;
11394;SDS011;5753;54.402;10.220;2023-07-13T14:12:53;3.15;;;0.75;;
11394;SDS011;5753;54.402;10.220;2023-07-13T14:15:27;1.85;;;1.00;;
11394;SDS011;5753;54.402;10.220;2023-07-13T14:17:55;5.70;;;1.98;;
11394;SDS011;5753;54.402;10.220;2023-07-13T14:20:24;2.10;;;1.42;;
11394;SDS011;5753;54.402;10.220;2023-07-13T14:22:53;2.85;;;1.10;;
11394;SDS011;5753;54.402;10.220;2023-07-13T14:25:20;2.65;;;1.42;;
11394;SDS011;5753;54.402;10.220;2023-07-13T14:27:48;6.22;;;1.25;;
11394;SDS011;5753;54.402;10.220;2023-07-13T14:30:21;4.80;;;1.40;;
11394;SDS011;5753;54.402;10.220;2023-07-13T14:32:48;9.38;;;1.10;;
11394;SDS011;5753;54.402;10.220;2023-07-13T14:35:14;3.92;;;0.80;;
11394;SDS011;5753;54.402;10.220;2023-07-13T14:37:42;5.13;;;1.02;;
11394;SDS011;5753;54.402;10.220;2023-07-13T14:40:14;2.45;;;1.13;;
11394;SDS011;5753;54.402;10.220;2023-07-13T14:42:55;1.60;;;0.90;;
11394;SDS011;5753;54.402;10.220;2023-07-13T14:45:21;2.33;;;1.23;;
11394;SDS011;5753;54.402;10.220;2023-07-13T14:47:48;3.63;;;0.98;;
11394;SDS011;5753;54.402;10.220;2023-07-13T14:52:41;3.28;;;0.88;;
11394;SDS011;5753;54.402;10.220;2023-07-13T14:55:10;4.63;;;1.08;;
11394;SDS011;5753;54.402;10.220;2023-07-13T14:57:37;2.53;;;1.20;;
11394;SDS011;5753;54.402;10.220;2023-07-13T15:00:04;4.20;;;1.13;;
11394;SDS011;5753;54.402;10.220;2023-07-13T15:02:51;5.45;;;2.00;;
11394;SDS011;5753;54.402;10.220;2023-07-13T15:05:23;2.45;;;0.98;;
11394;SDS011;5753;54.402;10.220;2023-07-13T15:07:56;6.28;;;1.42;;
11394;SDS011;5753;54.402;10.220;2023-07-13T15:10:25;4.60;;;1.40;;
11394;SDS011;5753;54.402;10.220;2023-07-13T15:13:01;1.33;;;1.00;;
11394;SDS011;5753;54.402;10.220;2023-07-13T15:15:45;12.02;;;2.28;;
11394;SDS011;5753;54.402;10.220;2023-07-13T15:18:14;1.15;;;0.95;;
11394;SDS011;5753;54.402;10.220;2023-07-13T15:20:42;3.90;;;1.63;;
11394;SDS011;5753;54.402;10.220;2023-07-13T15:23:10;4.30;;;2.88;;
11394;SDS011;5753;54.402;10.220;2023-07-13T15:25:37;3.63;;;1.15;;
11394;SDS011;5753;54.402;10.220;2023-07-13T15:28:04;5.60;;;1.83;;
11394;SDS011;5753;54.402;10.220;2023-07-13T15:30:32;1.10;;;0.95;;
11394;SDS011;5753;54.402;10.220;2023-07-13T15:35:48;1.23;;;1.00;;
11394;SDS011;5753;54.402;10.220;2023-07-13T15:38:20;8.85;;;3.97;;
11394;SDS011;5753;54.402;10.220;2023-07-13T15:40:50;2.05;;;1.35;;
11394;SDS011;5753;54.402;10.220;2023-07-13T15:43:18;1.88;;;1.40;;
11394;SDS011;5753;54.402;10.220;2023-07-13T15:45:45;1.23;;;1.00;;
11394;SDS011;5753;54.402;10.220;2023-07-13T15:50:43;5.00;;;1.52;;